createdAt,value
2022-12-26T00:01:13.333Z,3.83
2022-12-26T00:03:41.768Z,3.50
2022-12-26T00:06:13.826Z,3.67
2022-12-26T00:08:44.000Z,3.67
2022-12-26T00:11:13.305Z,3.47
2022-12-26T00:13:42.250Z,3.93
2022-12-26T00:16:12.530Z,3.83
2022-12-26T00:18:41.768Z,4.20
2022-12-26T00:21:12.375Z,3.70
2022-12-26T00:23:41.412Z,4.17
2022-12-26T00:26:12.936Z,3.43
2022-12-26T00:28:41.390Z,3.60
2022-12-26T00:31:12.148Z,3.47
2022-12-26T00:33:40.816Z,3.70
2022-12-26T00:36:11.075Z,3.70
2022-12-26T00:38:40.355Z,4.30
2022-12-26T00:41:11.113Z,3.20
2022-12-26T00:43:39.691Z,3.53
2022-12-26T00:46:08.919Z,3.90
2022-12-26T00:48:37.184Z,3.43
2022-12-26T00:51:06.415Z,3.60
2022-12-26T00:53:35.066Z,3.00
2022-12-26T00:56:03.291Z,3.00
2022-12-26T00:58:33.188Z,3.90
2022-12-26T01:01:08.268Z,3.53
2022-12-26T01:03:36.631Z,3.23
2022-12-26T01:06:05.718Z,3.10
2022-12-26T01:08:34.256Z,2.97
2022-12-26T01:11:06.600Z,3.13
2022-12-26T01:13:37.116Z,3.60
2022-12-26T01:16:07.246Z,2.80
2022-12-26T01:18:36.419Z,3.30
2022-12-26T01:21:06.965Z,3.10
2022-12-26T01:23:35.273Z,2.90
2022-12-26T01:26:16.980Z,3.07
2022-12-26T01:28:50.423Z,2.90
2022-12-26T01:31:19.694Z,3.07
2022-12-26T01:33:48.138Z,3.40
2022-12-26T01:36:17.320Z,2.73
2022-12-26T01:38:46.166Z,2.67
2022-12-26T01:41:21.058Z,2.73
2022-12-26T01:44:00.028Z,2.63
2022-12-26T01:46:32.502Z,2.70
2022-12-26T01:49:03.597Z,2.90
2022-12-26T01:51:37.941Z,2.93
2022-12-26T01:54:39.703Z,2.63
2022-12-26T01:56:58.694Z,2.80
2022-12-26T01:59:31.887Z,2.97
2022-12-26T02:02:01.098Z,3.10
2022-12-26T02:04:51.425Z,2.60
2022-12-26T02:07:19.799Z,2.80
2022-12-26T02:09:48.225Z,2.40
2022-12-26T02:12:35.325Z,2.70
2022-12-26T02:15:10.011Z,2.50
2022-12-26T02:17:39.103Z,3.40
2022-12-26T02:20:18.765Z,2.80
2022-12-26T02:23:16.857Z,2.80
2022-12-26T02:26:03.508Z,2.87
2022-12-26T02:28:55.008Z,2.60
2022-12-26T02:31:29.285Z,2.73
2022-12-26T02:34:08.123Z,2.67
2022-12-26T02:36:59.239Z,2.63
2022-12-26T02:39:48.027Z,2.67
2022-12-26T02:42:25.887Z,2.60
2022-12-26T02:45:14.122Z,2.67
2022-12-26T02:47:53.596Z,3.00
2022-12-26T02:50:47.760Z,2.97
2022-12-26T02:53:50.587Z,2.93
2022-12-26T02:56:41.765Z,3.00
2022-12-26T02:59:56.444Z,2.73
2022-12-26T03:02:48.809Z,2.60
2022-12-26T03:05:43.410Z,2.57
2022-12-26T03:08:43.385Z,3.30
2022-12-26T03:11:29.184Z,2.80
2022-12-26T03:14:04.749Z,2.20
2022-12-26T03:16:51.982Z,2.73
2022-12-26T03:19:22.698Z,3.10
2022-12-26T03:21:52.928Z,2.67
2022-12-26T03:24:23.654Z,2.70
2022-12-26T03:26:54.208Z,2.90
2022-12-26T03:29:42.223Z,2.80
2022-12-26T03:32:12.382Z,2.73
2022-12-26T03:34:45.285Z,2.70
2022-12-26T03:37:48.869Z,3.10
2022-12-26T03:40:50.158Z,2.57
2022-12-26T03:43:48.060Z,2.77
2022-12-26T03:46:40.549Z,2.47
2022-12-26T03:49:30.917Z,2.43
2022-12-26T03:52:21.195Z,2.73
2022-12-26T03:55:12.867Z,2.40
2022-12-26T03:58:06.799Z,2.90
2022-12-26T04:00:55.296Z,2.00
2022-12-26T04:03:42.820Z,2.67
2022-12-26T04:06:36.100Z,2.53
2022-12-26T04:09:27.834Z,2.77
2022-12-26T04:12:16.780Z,2.50
2022-12-26T04:15:06.471Z,3.40
2022-12-26T04:17:58.760Z,2.30
2022-12-26T04:20:34.452Z,2.53
2022-12-26T04:23:24.901Z,2.73
2022-12-26T04:26:18.637Z,2.30
2022-12-26T04:29:05.649Z,2.70
2022-12-26T04:31:58.127Z,2.37
2022-12-26T04:34:49.826Z,2.47
2022-12-26T04:37:40.652Z,2.77
2022-12-26T04:40:30.644Z,2.43
2022-12-26T04:43:49.867Z,2.60
2022-12-26T04:46:08.177Z,2.50
2022-12-26T04:49:02.028Z,2.40
2022-12-26T04:51:30.432Z,2.40
2022-12-26T04:53:58.665Z,2.60
2022-12-26T04:56:26.883Z,2.83
2022-12-26T04:58:55.115Z,2.27
2022-12-26T05:01:42.203Z,2.60
2022-12-26T05:04:31.409Z,2.23
2022-12-26T05:07:32.321Z,2.40
2022-12-26T05:10:00.706Z,2.53
2022-12-26T05:12:29.014Z,2.87
2022-12-26T05:14:57.273Z,2.50
2022-12-26T05:17:46.387Z,2.60
2022-12-26T05:20:32.322Z,2.37
2022-12-26T05:23:21.309Z,2.47
2022-12-26T05:26:07.623Z,2.60
2022-12-26T05:28:44.796Z,2.40
2022-12-26T05:31:15.795Z,2.60
2022-12-26T05:34:03.552Z,2.50
2022-12-26T05:36:37.814Z,2.43
2022-12-26T05:39:06.867Z,2.40
2022-12-26T05:41:35.114Z,2.20
2022-12-26T05:44:03.339Z,2.27
2022-12-26T05:46:31.696Z,2.17
2022-12-26T05:49:01.439Z,2.53
2022-12-26T05:51:29.722Z,2.70
2022-12-26T05:53:57.993Z,2.17
2022-12-26T05:56:26.396Z,2.40
2022-12-26T05:58:58.876Z,2.23
2022-12-26T06:01:28.916Z,2.20
2022-12-26T06:03:58.699Z,2.47
2022-12-26T06:06:28.784Z,2.77
2022-12-26T06:08:58.107Z,2.27
2022-12-26T06:11:27.154Z,2.63
2022-12-26T06:13:55.909Z,2.73
2022-12-26T06:16:24.501Z,2.37
2022-12-26T06:18:52.855Z,2.50
2022-12-26T06:21:22.119Z,2.17
2022-12-26T06:23:51.839Z,2.37
2022-12-26T06:26:20.083Z,2.43
2022-12-26T06:28:48.338Z,2.20
2022-12-26T06:31:21.043Z,2.47
2022-12-26T06:33:49.924Z,2.27
2022-12-26T06:36:20.441Z,2.20
2022-12-26T06:38:48.741Z,2.60
2022-12-26T06:41:20.097Z,2.57
2022-12-26T06:43:48.947Z,2.77
2022-12-26T06:46:19.084Z,2.27
2022-12-26T06:48:47.769Z,2.20
2022-12-26T06:51:18.551Z,2.20
2022-12-26T06:53:46.875Z,2.20
2022-12-26T06:56:19.001Z,2.13
2022-12-26T06:58:47.427Z,2.37
2022-12-26T07:01:18.409Z,2.00
2022-12-26T07:03:51.630Z,2.30
2022-12-26T07:06:24.618Z,1.77
2022-12-26T07:08:53.588Z,2.30
2022-12-26T07:11:25.589Z,2.10
2022-12-26T07:13:55.056Z,1.80
2022-12-26T07:16:23.582Z,2.27
2022-12-26T07:18:54.307Z,2.27
2022-12-26T07:21:23.010Z,2.13
2022-12-26T07:23:51.503Z,2.00
2022-12-26T07:26:20.137Z,2.50
2022-12-26T07:28:49.779Z,2.10
2022-12-26T07:31:19.085Z,2.10
2022-12-26T07:33:49.851Z,2.90
2022-12-26T07:36:18.811Z,1.97
2022-12-26T07:38:47.372Z,2.40
2022-12-26T07:41:32.810Z,2.00
2022-12-26T07:44:02.431Z,2.03
2022-12-26T07:46:31.380Z,2.20
2022-12-26T07:49:00.773Z,2.00
2022-12-26T07:51:29.338Z,2.15
2022-12-26T07:53:57.809Z,2.47
2022-12-26T07:56:26.259Z,2.10
2022-12-26T07:58:54.521Z,2.37
2022-12-26T08:01:24.294Z,2.40
2022-12-26T08:03:53.207Z,2.27
2022-12-26T08:06:21.908Z,2.37
2022-12-26T08:08:51.882Z,2.07
2022-12-26T08:11:22.911Z,2.10
2022-12-26T08:13:51.462Z,2.33
2022-12-26T08:16:20.659Z,2.20
2022-12-26T08:18:50.364Z,1.77
2022-12-26T08:21:18.700Z,2.40
2022-12-26T08:23:48.499Z,2.50
2022-12-26T08:26:22.675Z,2.13
2022-12-26T08:28:52.423Z,2.47
2022-12-26T08:31:22.376Z,2.05
2022-12-26T08:33:52.152Z,2.30
2022-12-26T08:36:20.394Z,2.20
2022-12-26T08:38:48.609Z,2.03
2022-12-26T08:41:17.921Z,2.40
2022-12-26T08:46:38.792Z,2.33
2022-12-26T08:49:08.433Z,2.30
2022-12-26T08:51:36.722Z,1.95
2022-12-26T08:54:05.388Z,2.25
2022-12-26T08:56:33.818Z,2.22
2022-12-26T08:59:02.054Z,2.13
2022-12-26T09:01:32.266Z,2.00
2022-12-26T09:04:03.241Z,2.27
2022-12-26T09:06:34.089Z,1.73
2022-12-26T09:09:02.876Z,1.90
2022-12-26T09:11:31.247Z,1.50
2022-12-26T09:14:02.590Z,1.63
2022-12-26T09:16:39.302Z,2.10
2022-12-26T09:19:11.175Z,1.63
2022-12-26T09:21:41.390Z,1.70
2022-12-26T09:24:13.107Z,2.03
2022-12-26T09:26:41.680Z,2.63
2022-12-26T09:29:12.029Z,1.70
2022-12-26T09:31:40.566Z,2.20
2022-12-26T09:34:09.322Z,1.67
2022-12-26T09:36:39.770Z,2.30
2022-12-26T09:39:09.739Z,2.10
2022-12-26T09:41:59.431Z,1.97
2022-12-26T09:44:37.912Z,1.90
2022-12-26T09:47:17.721Z,2.20
2022-12-26T09:49:53.159Z,1.63
2022-12-26T09:52:25.979Z,2.30
2022-12-26T09:55:00.200Z,1.70
2022-12-26T09:57:37.711Z,2.53
2022-12-26T10:00:08.651Z,2.22
2022-12-26T10:02:36.917Z,2.30
2022-12-26T10:05:06.799Z,1.60
2022-12-26T10:07:42.423Z,2.25
2022-12-26T10:10:15.068Z,2.22
2022-12-26T10:12:53.341Z,2.17
2022-12-26T10:15:39.513Z,2.25
2022-12-26T10:18:25.464Z,2.17
2022-12-26T10:21:10.135Z,2.53
2022-12-26T10:23:40.432Z,1.83
2022-12-26T10:26:16.928Z,1.88
2022-12-26T10:28:50.590Z,1.98
2022-12-26T10:31:22.654Z,2.30
2022-12-26T10:33:55.545Z,2.15
2022-12-26T10:36:32.699Z,2.33
2022-12-26T10:39:04.051Z,2.33
2022-12-26T10:41:40.298Z,2.03
2022-12-26T10:44:12.756Z,2.67
2022-12-26T10:46:59.973Z,2.40
2022-12-26T10:49:28.985Z,2.08
2022-12-26T10:52:00.312Z,2.27
2022-12-26T10:54:30.139Z,2.20
2022-12-26T10:57:01.816Z,1.98
2022-12-26T10:59:40.406Z,2.30
2022-12-26T11:02:24.949Z,2.10
2022-12-26T11:07:52.446Z,1.92
2022-12-26T11:10:23.719Z,1.92
2022-12-26T11:12:55.456Z,2.03
2022-12-26T11:15:30.191Z,1.95
2022-12-26T11:18:10.976Z,1.92
2022-12-26T11:20:40.006Z,1.60
2022-12-26T11:23:24.928Z,1.90
2022-12-26T11:25:55.064Z,1.65
2022-12-26T11:28:34.216Z,1.37
2022-12-26T11:31:04.713Z,1.67
2022-12-26T11:33:35.319Z,3.43
2022-12-26T11:36:10.428Z,1.90
2022-12-26T11:38:49.289Z,1.70
2022-12-26T11:41:36.803Z,1.90
2022-12-26T11:44:18.712Z,2.20
2022-12-26T11:46:52.325Z,2.07
2022-12-26T11:49:26.202Z,1.67
2022-12-26T11:51:59.207Z,2.10
2022-12-26T11:54:31.675Z,2.13
2022-12-26T11:57:13.097Z,1.70
2022-12-26T11:59:42.814Z,1.92
2022-12-26T12:02:25.640Z,1.92
2022-12-26T12:04:56.539Z,1.65
2022-12-26T12:07:53.437Z,1.80
2022-12-26T12:10:48.470Z,1.95
2022-12-26T12:13:27.216Z,1.63
2022-12-26T12:16:07.607Z,1.70
2022-12-26T12:18:48.959Z,1.83
2022-12-26T12:21:26.101Z,1.75
2022-12-26T12:24:11.017Z,2.07
2022-12-26T12:26:54.443Z,1.77
2022-12-26T12:29:36.746Z,1.90
2022-12-26T12:32:14.486Z,2.20
2022-12-26T12:35:08.789Z,2.10
2022-12-26T12:37:50.830Z,2.07
2022-12-26T12:40:31.204Z,2.10
2022-12-26T12:43:09.302Z,2.03
2022-12-26T12:45:48.215Z,1.80
2022-12-26T12:48:29.498Z,1.80
2022-12-26T12:51:05.330Z,2.28
2022-12-26T12:53:51.584Z,2.40
2022-12-26T12:56:34.596Z,2.10
2022-12-26T12:59:12.264Z,2.20
2022-12-26T13:01:44.951Z,2.03
2022-12-26T13:04:19.171Z,1.98
2022-12-26T13:06:52.418Z,1.85
2022-12-26T13:09:23.962Z,2.00
2022-12-26T13:11:58.213Z,2.80
2022-12-26T13:14:30.417Z,2.17
2022-12-26T13:17:02.133Z,2.42
2022-12-26T13:19:39.047Z,2.20
2022-12-26T13:22:14.990Z,2.10
2022-12-26T13:24:45.813Z,2.13
2022-12-26T13:27:18.470Z,2.10
2022-12-26T13:29:48.837Z,2.17
2022-12-26T13:32:22.184Z,2.30
2022-12-26T13:34:53.208Z,2.20
2022-12-26T13:37:58.042Z,2.25
2022-12-26T13:40:30.254Z,1.83
2022-12-26T13:43:21.456Z,2.27
2022-12-26T13:45:54.983Z,1.80
2022-12-26T13:48:56.228Z,1.97
2022-12-26T13:51:49.508Z,1.77
2022-12-26T13:54:18.673Z,2.13
2022-12-26T13:57:28.103Z,2.72
2022-12-26T14:00:06.251Z,2.43
2022-12-26T14:03:21.882Z,3.33
2022-12-26T14:06:22.793Z,2.03
2022-12-26T14:09:21.891Z,1.93
2022-12-26T14:12:05.665Z,2.27
2022-12-26T14:14:52.393Z,1.90
2022-12-26T14:17:34.256Z,2.07
2022-12-26T14:20:12.406Z,2.40
2022-12-26T14:22:50.689Z,2.43
2022-12-26T14:25:27.947Z,2.27
2022-12-26T14:28:03.755Z,2.17
2022-12-26T14:30:36.578Z,2.40
2022-12-26T14:33:22.761Z,1.93
2022-12-26T14:36:02.599Z,2.70
2022-12-26T14:38:41.763Z,2.50
2022-12-26T14:41:33.922Z,2.43
2022-12-26T14:44:15.749Z,2.87
2022-12-26T14:47:00.198Z,2.07
2022-12-26T14:49:39.451Z,2.23
2022-12-26T14:52:40.927Z,2.03
2022-12-26T14:55:42.168Z,2.30
2022-12-26T14:58:31.049Z,2.27
2022-12-26T15:01:38.329Z,2.17
2022-12-26T15:04:14.175Z,2.30
2022-12-26T15:07:15.463Z,2.17
2022-12-26T15:10:40.730Z,2.20
2022-12-26T15:13:30.728Z,2.50
2022-12-26T15:16:12.064Z,1.87
2022-12-26T15:19:14.179Z,2.10
2022-12-26T15:22:05.456Z,2.23
2022-12-26T15:25:20.234Z,2.20
2022-12-26T15:28:22.929Z,2.13
2022-12-26T15:31:15.806Z,2.20
2022-12-26T15:33:51.509Z,1.90
2022-12-26T15:36:28.452Z,1.80
2022-12-26T15:39:02.561Z,2.10
2022-12-26T15:41:39.385Z,2.03
2022-12-26T15:44:21.890Z,2.27
2022-12-26T15:46:58.954Z,2.10
2022-12-26T15:49:56.960Z,1.80
2022-12-26T15:52:38.799Z,2.60
2022-12-26T15:55:21.487Z,2.20
2022-12-26T15:57:57.289Z,1.80
2022-12-26T16:00:26.934Z,2.30
2022-12-26T16:03:18.745Z,1.73
2022-12-26T16:05:59.501Z,2.20
2022-12-26T16:08:49.390Z,2.37
2022-12-26T16:11:23.300Z,2.37
2022-12-26T16:13:54.608Z,2.13
2022-12-26T16:16:29.268Z,2.50
2022-12-26T16:18:59.496Z,2.00
2022-12-26T16:21:47.356Z,1.80
2022-12-26T16:24:19.765Z,2.07
2022-12-26T16:26:48.772Z,2.17
2022-12-26T16:29:21.185Z,2.33
2022-12-26T16:31:49.722Z,2.17
2022-12-26T16:34:21.854Z,2.50
2022-12-26T16:36:51.779Z,2.30
2022-12-26T16:39:24.342Z,1.60
2022-12-26T16:42:05.443Z,1.77
2022-12-26T16:44:38.059Z,2.10
2022-12-26T16:47:08.651Z,2.37
2022-12-26T16:49:40.514Z,2.33
2022-12-26T16:52:08.937Z,2.43
2022-12-26T16:54:42.479Z,1.80
2022-12-26T16:57:16.680Z,1.33
2022-12-26T16:59:51.871Z,1.83
2022-12-26T17:02:25.430Z,1.50
2022-12-26T17:05:00.529Z,1.60
2022-12-26T17:07:29.695Z,1.53
2022-12-26T17:10:01.533Z,1.53
2022-12-26T17:12:35.019Z,0.97
2022-12-26T17:15:04.342Z,1.20
2022-12-26T17:17:35.575Z,1.37
2022-12-26T17:20:34.339Z,1.27
2022-12-26T17:23:34.172Z,1.17
2022-12-26T17:26:24.499Z,1.30
2022-12-26T17:28:53.123Z,1.10
2022-12-26T17:31:29.001Z,1.60
2022-12-26T17:33:58.345Z,1.37
2022-12-26T17:37:17.390Z,1.70
2022-12-26T17:39:22.290Z,1.23
2022-12-26T17:41:53.048Z,1.30
2022-12-26T17:44:36.140Z,1.30
2022-12-26T17:47:14.968Z,1.30
2022-12-26T17:49:43.221Z,1.50
2022-12-26T17:52:14.557Z,1.50
2022-12-26T17:54:43.051Z,1.10
2022-12-26T17:57:21.602Z,1.30
2022-12-26T17:59:51.049Z,1.37
2022-12-26T18:02:20.033Z,0.87
2022-12-26T18:04:49.265Z,0.90
2022-12-26T18:07:28.722Z,1.17
2022-12-26T18:09:59.291Z,0.90
2022-12-26T18:12:27.500Z,1.20
2022-12-26T18:15:01.365Z,1.50
2022-12-26T18:17:33.028Z,1.20
2022-12-26T18:20:01.296Z,0.60
2022-12-26T18:22:30.956Z,1.40
2022-12-26T18:24:59.253Z,1.10
2022-12-26T18:27:31.358Z,1.00
2022-12-26T18:30:00.242Z,1.33
2022-12-26T18:32:30.629Z,0.90
2022-12-26T18:34:59.391Z,1.30
2022-12-26T18:37:31.451Z,1.23
2022-12-26T18:39:59.698Z,1.60
2022-12-26T18:42:27.923Z,1.10
2022-12-26T18:44:56.283Z,1.30
2022-12-26T18:47:24.582Z,1.40
2022-12-26T18:49:52.965Z,1.30
2022-12-26T18:52:21.210Z,1.20
2022-12-26T18:54:50.827Z,1.10
2022-12-26T18:57:21.836Z,1.30
2022-12-26T18:59:50.187Z,0.97
2022-12-26T19:02:20.116Z,1.07
2022-12-26T19:04:49.006Z,1.37
2022-12-26T19:07:20.434Z,0.90
2022-12-26T19:09:55.001Z,1.43
2022-12-26T19:12:23.820Z,1.20
2022-12-26T19:14:52.171Z,1.30
2022-12-26T19:17:20.382Z,0.90
2022-12-26T19:19:49.556Z,1.10
2022-12-26T19:22:17.819Z,1.00
2022-12-26T19:24:46.939Z,1.17
2022-12-26T19:27:16.666Z,1.00
2022-12-26T19:29:44.865Z,0.73
2022-12-26T19:32:13.131Z,0.90
2022-12-26T19:34:41.383Z,0.80
2022-12-26T19:37:09.638Z,0.90
2022-12-26T19:39:37.905Z,0.90
2022-12-26T19:42:06.263Z,1.20
2022-12-26T19:44:35.950Z,0.53
2022-12-26T19:47:11.704Z,0.87
2022-12-26T19:49:41.509Z,0.90
2022-12-26T19:52:10.020Z,0.43
2022-12-26T19:54:38.587Z,0.60
2022-12-26T19:57:07.188Z,0.57
2022-12-26T19:59:37.319Z,0.63
2022-12-26T20:02:06.039Z,0.70
2022-12-26T20:04:34.488Z,0.60
2022-12-26T20:07:03.031Z,0.80
2022-12-26T20:09:31.330Z,0.30
2022-12-26T20:11:59.585Z,0.30
2022-12-26T20:14:28.815Z,0.60
2022-12-26T20:17:08.278Z,1.17
2022-12-26T20:19:37.771Z,0.67
2022-12-26T20:22:07.639Z,0.60
2022-12-26T20:24:36.413Z,0.80
2022-12-26T20:27:05.007Z,0.50
2022-12-26T20:29:33.311Z,0.63
2022-12-26T20:32:03.014Z,0.50
2022-12-26T20:34:31.367Z,0.60
2022-12-26T20:36:59.761Z,0.77
2022-12-26T20:39:27.985Z,0.47
2022-12-26T20:41:56.323Z,0.80
2022-12-26T20:44:25.668Z,0.73
2022-12-26T20:46:54.193Z,0.60
2022-12-26T20:49:23.935Z,0.57
2022-12-26T20:51:52.203Z,0.83
2022-12-26T20:54:20.409Z,0.83
2022-12-26T20:56:48.979Z,0.83
2022-12-26T20:59:17.363Z,0.40
2022-12-26T21:01:46.407Z,0.40
2022-12-26T21:04:18.920Z,0.40
2022-12-26T21:06:50.640Z,0.83
2022-12-26T21:09:18.904Z,0.60
2022-12-26T21:11:47.172Z,0.87
2022-12-26T21:14:17.632Z,1.27
2022-12-26T21:16:47.988Z,0.77
2022-12-26T21:19:17.077Z,0.67
2022-12-26T21:21:47.026Z,0.80
2022-12-26T21:24:20.109Z,0.60
2022-12-26T21:26:49.005Z,0.77
2022-12-26T21:29:20.982Z,0.63
2022-12-26T21:31:49.829Z,0.53
2022-12-26T21:34:20.460Z,0.80
2022-12-26T21:37:03.081Z,1.93
2022-12-26T21:39:33.779Z,1.20
2022-12-26T21:42:02.610Z,0.87
2022-12-26T21:44:30.882Z,0.80
2022-12-26T21:46:59.245Z,1.13
2022-12-26T21:49:27.606Z,1.23
2022-12-26T21:51:55.845Z,0.67
2022-12-26T21:54:48.319Z,0.73
2022-12-26T21:57:19.710Z,0.87
2022-12-26T22:00:00.912Z,0.77
2022-12-26T22:02:49.022Z,0.57
2022-12-26T22:05:18.153Z,0.87
2022-12-26T22:07:46.980Z,0.87
2022-12-26T22:10:36.234Z,0.90
2022-12-26T22:13:05.823Z,0.87
2022-12-26T22:15:51.770Z,1.40
2022-12-26T22:18:20.608Z,0.83
2022-12-26T22:20:48.906Z,1.53
2022-12-26T22:23:17.144Z,1.50
2022-12-26T22:25:45.377Z,1.00
2022-12-26T22:28:20.157Z,1.27
2022-12-26T22:30:52.040Z,1.10
2022-12-26T22:33:20.741Z,1.13
2022-12-26T22:35:49.302Z,0.80
2022-12-26T22:38:17.571Z,1.07
2022-12-26T22:40:55.544Z,0.90
2022-12-26T22:43:26.038Z,1.20
2022-12-26T22:45:55.384Z,1.20
2022-12-26T22:48:24.657Z,0.97
2022-12-26T22:50:55.981Z,1.33
2022-12-26T22:53:25.210Z,1.20
2022-12-26T22:55:57.774Z,0.87
2022-12-26T22:58:27.802Z,1.03
2022-12-26T23:00:56.271Z,1.00
2022-12-26T23:03:25.046Z,0.77
2022-12-26T23:05:54.264Z,0.77
2022-12-26T23:08:24.521Z,1.27
2022-12-26T23:10:54.388Z,0.77
2022-12-26T23:13:23.319Z,1.07
2022-12-26T23:15:57.655Z,1.47
2022-12-26T23:18:52.321Z,1.03
2022-12-26T23:21:41.950Z,0.63
2022-12-26T23:24:16.327Z,1.20
2022-12-26T23:26:46.555Z,1.47
2022-12-26T23:29:33.963Z,1.13
2022-12-26T23:32:03.941Z,0.90
2022-12-26T23:34:32.524Z,1.10
2022-12-26T23:37:00.757Z,0.80
2022-12-26T23:39:30.825Z,0.80
2022-12-26T23:41:59.068Z,0.80
2022-12-26T23:44:27.358Z,0.47
2022-12-26T23:46:55.591Z,1.10
2022-12-26T23:49:25.330Z,0.97
2022-12-26T23:51:53.556Z,0.47
2022-12-26T23:54:21.898Z,1.10
2022-12-26T23:56:50.087Z,0.90
2022-12-26T23:59:19.785Z,1.97
